Time;durP1;ratioP1;P1;durP2;ratioP2;P2;SDS_P1;SDS_P2;PMS_P1;PMS_P2;Temp;Humidity;BMP_temperature;BMP_pressure;BME280_temperature;BME280_humidity;BME280_pressure;Samples;Min_cycle;Max_cycle;Signal;HPM_P1;HPM_P2
2022/06/14 00:02:04;;;;;;;;;;;;;;;9.77;98.89;98915.53;2597321;28;20146;-85
2022/06/14 00:03:41;;;;;;;6.07;2.45;;;;;;;9.78;99.45;98922.50;2596258;28;20342;-83
2022/06/14 00:05:15;;;;;;;3.28;2.60;;;;;;;9.73;100.00;98919.09;2596730;28;20092;-83
2022/06/14 00:06:49;;;;;;;6.55;2.70;;;;;;;9.66;100.00;98923.56;2596569;28;20103;-83
2022/06/14 00:08:05;;;;;;;4.47;2.83;;;;;;;9.65;100.00;98920.97;2596607;28;20045;-83
2022/06/14 00:09:21;;;;;;;8.30;2.90;;;;;;;9.67;100.00;98920.06;2596532;28;20046;-88
2022/06/14 00:10:37;;;;;;;5.13;3.05;;;;;;;9.57;100.00;98924.59;2596578;28;20053;-83
2022/06/14 00:11:52;;;;;;;7.03;3.05;;;;;;;9.65;100.00;98911.41;2596566;28;20054;-83
2022/06/14 00:13:09;;;;;;;5.07;2.88;;;;;;;9.64;100.00;98920.13;2596657;28;20053;-83
2022/06/14 00:14:25;;;;;;;8.18;3.13;;;;;;;9.62;100.00;98927.09;2596522;28;20053;-82
2022/06/14 00:15:41;;;;;;;6.05;3.17;;;;;;;9.74;100.00;98921.69;2596793;28;20080;-87
2022/06/14 00:16:56;;;;;;;4.60;3.13;;;;;;;9.77;100.00;98922.50;2596307;28;20077;-84
2022/06/14 00:18:17;;;;;;;6.60;3.42;;;;;;;9.78;100.00;98922.50;2596456;28;20510;-83
2022/06/14 00:19:33;;;;;;;4.57;3.05;;;;;;;9.80;100.00;98925.09;2596451;28;20049;-87
2022/06/14 00:20:49;;;;;;;7.10;3.00;;;;;;;9.85;100.00;98925.88;2596541;28;20084;-83
2022/06/14 00:22:07;;;;;;;3.22;2.70;;;;;;;9.90;100.00;98931.88;2596453;28;20064;-83
2022/06/14 00:23:23;;;;;;;8.10;3.42;;;;;;;9.89;100.00;98924.91;2596219;28;20511;-84
2022/06/14 00:24:39;;;;;;;5.97;3.50;;;;;;;9.92;100.00;98930.13;2596298;28;20057;-83
2022/06/14 00:25:56;;;;;;;7.47;2.92;;;;;;;9.89;100.00;98928.41;2596487;28;20484;-83
2022/06/14 00:27:11;;;;;;;3.80;2.60;;;;;;;9.94;100.00;98935.31;2596536;28;20045;-84
2022/06/14 00:28:30;;;;;;;5.85;2.83;;;;;;;9.92;100.00;98926.63;2596001;28;20474;-83
2022/06/14 00:29:46;;;;;;;6.43;2.67;;;;;;;9.83;100.00;98932.88;2596179;28;20049;-84
2022/06/14 00:31:11;;;;;;;3.10;2.67;;;;;;;9.75;100.00;98933.00;2596585;28;20084;-84
2022/06/14 00:32:26;;;;;;;4.90;2.95;;;;;;;9.71;100.00;98934.81;2596321;28;20073;-86
2022/06/14 00:33:42;;;;;;;6.32;2.40;;;;;;;9.69;100.00;98931.38;2596292;28;20173;-84
2022/06/14 00:34:58;;;;;;;4.70;2.38;;;;;;;9.67;100.00;98935.75;2596549;28;20477;-84
2022/06/14 00:36:33;;;;;;;4.13;2.50;;;;;;;9.65;100.00;98937.53;2596432;28;20250;-83
2022/06/14 00:37:48;;;;;;;5.90;3.30;;;;;;;9.58;100.00;98935.91;2596119;28;20484;-84
2022/06/14 00:39:07;;;;;;;5.90;2.97;;;;;;;9.60;100.00;98942.84;2596569;28;20053;-83
2022/06/14 00:40:25;;;;;;;6.13;2.58;;;;;;;9.52;100.00;98946.47;2596173;28;20045;-83
2022/06/14 00:41:44;;;;;;;4.13;2.65;;;;;;;9.50;100.00;98940.38;2596446;28;20077;-84
2022/06/14 00:43:02;;;;;;;6.25;2.53;;;;;;;9.47;100.00;98944.75;2596293;28;20548;-89
2022/06/14 00:44:24;;;;;;;4.88;2.55;;;;;;;9.45;100.00;98949.16;2596070;28;20057;-84
2022/06/14 00:45:40;;;;;;;3.80;2.30;;;;;;;9.42;100.00;98946.59;2596299;28;20096;-83
2022/06/14 00:47:06;;;;;;;6.00;2.70;;;;;;;9.34;100.00;98953.66;2595986;28;20142;-83
2022/06/14 00:48:27;;;;;;;4.10;2.38;;;;;;;9.33;100.00;98949.34;2596423;28;20060;-83
2022/06/14 00:49:56;;;;;;;10.50;2.88;;;;;;;9.42;100.00;98950.94;2596341;28;20041;-85
2022/06/14 00:51:23;;;;;;;6.50;2.33;;;;;;;9.45;100.00;98945.69;2596406;28;20045;-86
2022/06/14 00:52:49;;;;;;;4.55;2.83;;;;;;;9.50;100.00;98962.16;2596382;28;20132;-83
2022/06/14 00:54:14;;;;;;;4.60;2.50;;;;;;;9.50;100.00;98954.31;2596837;28;20540;-83
2022/06/14 00:55:37;;;;;;;5.00;2.60;;;;;;;9.50;100.00;98956.94;2596231;28;20100;-83
2022/06/14 00:56:57;;;;;;;8.60;2.90;;;;;;;9.56;100.00;98955.97;2596334;28;20053;-84
2022/06/14 00:58:32;;;;;;;3.15;2.40;;;;;;;9.58;100.00;98954.19;2596552;28;20041;-83
2022/06/14 00:59:53;;;;;;;5.47;2.10;;;;;;;9.56;100.00;98951.59;2596719;28;20474;-83
2022/06/14 01:01:15;;;;;;;4.13;2.42;;;;;;;9.62;100.00;98958.47;2596366;28;20093;-83
2022/06/14 01:02:35;;;;;;;4.13;2.53;;;;;;;9.61;100.00;98957.63;2596359;28;20057;-84
2022/06/14 01:04:06;;;;;;;3.92;2.20;;;;;;;9.64;100.00;98956.72;2596309;28;20503;-87
2022/06/14 01:07:29;;;;;;;6.32;2.90;;;;;;;9.67;100.00;98961.91;2596518;28;20299;-84
2022/06/14 01:08:49;;;;;;;4.30;2.63;;;;;;;9.67;100.00;98955.78;2596242;28;20130;-83
2022/06/14 01:10:10;;;;;;;4.63;2.50;;;;;;;9.64;100.00;98956.72;2596431;28;20049;-87
2022/06/14 01:11:35;;;;;;;3.85;2.40;;;;;;;9.56;100.00;98951.59;2596378;28;20041;-83
2022/06/14 01:12:55;;;;;;;5.10;2.10;;;;;;;9.49;100.00;98962.16;2595901;28;20057;-83
2022/06/14 01:14:15;;;;;;;6.90;2.30;;;;;;;9.39;100.00;98958.84;2596456;28;20095;-84
2022/06/14 01:15:33;;;;;;;5.68;2.60;;;;;;;9.38;100.00;98952.75;2596272;28;20551;-87
2022/06/14 01:16:50;;;;;;;2.80;2.30;;;;;;;9.37;100.00;98958.00;2596338;28;20049;-83
2022/06/14 01:18:13;;;;;;;3.95;2.22;;;;;;;9.33;100.00;98958.06;2596213;28;20080;-85
2022/06/14 01:19:28;;;;;;;3.85;2.05;;;;;;;9.30;100.00;98965.94;2596049;28;20049;-84
2022/06/14 01:20:44;;;;;;;3.58;2.10;;;;;;;9.28;100.00;98961.63;2596415;28;20048;-83
2022/06/14 01:22:02;;;;;;;3.65;2.25;;;;;;;9.28;100.00;98964.22;2596361;28;20124;-84
2022/06/14 01:23:18;;;;;;;3.25;2.67;;;;;;;9.10;100.00;98966.22;2596236;28;20552;-83
2022/06/14 01:24:37;;;;;;;5.05;2.30;;;;;;;9.02;100.00;98970.66;2595924;28;20116;-83
2022/06/14 01:26:01;;;;;;;3.72;2.38;;;;;;;8.96;100.00;98973.38;2596267;28;20046;-83
2022/06/14 01:27:19;;;;;;;4.32;2.20;;;;;;;8.94;100.00;98964.66;2595936;28;20153;-83
2022/06/14 01:28:37;;;;;;;4.07;2.60;;;;;;;8.87;100.00;98969.97;2595707;28;20057;-83
2022/06/14 01:30:00;;;;;;;4.25;2.60;;;;;;;8.90;100.00;98969.94;2596297;28;20405;-83
2022/06/14 01:31:18;;;;;;;5.88;2.83;;;;;;;8.90;100.00;98975.16;2596039;28;20049;-83
2022/06/14 01:32:56;;;;;;;4.47;2.70;;;;;;;8.94;100.00;98970.78;2596126;28;20057;-84
2022/06/14 01:34:13;;;;;;;6.88;2.85;;;;;;;8.95;100.00;98979.47;2594864;28;20049;-83
2022/06/14 01:35:34;;;;;;;5.65;2.80;;;;;;;8.91;100.00;98978.66;2596112;28;20052;-85
2022/06/14 01:36:50;;;;;;;4.47;3.00;;;;;;;8.89;100.00;98975.19;2595970;28;20132;-83
2022/06/14 01:38:13;;;;;;;3.40;2.45;;;;;;;8.86;100.00;98978.69;2596180;28;20556;-86
2022/06/14 01:39:29;;;;;;;9.32;2.45;;;;;;;8.86;100.00;98972.59;2596054;28;20097;-84
2022/06/14 01:41:03;;;;;;;4.38;2.67;;;;;;;8.89;100.00;98973.44;2596395;28;20056;-84
2022/06/14 01:42:45;;;;;;;6.53;2.60;;;;;;;8.93;100.00;98973.38;2596174;28;20053;-83
2022/06/14 01:44:22;;;;;;;5.75;2.67;;;;;;;8.84;100.00;98980.47;2595776;28;20064;-83
2022/06/14 01:46:20;;;;;;;5.60;2.38;;;;;;;8.71;100.00;98977.13;2596027;28;20053;-84
2022/06/14 01:47:53;;;;;;;7.07;2.70;;;;;;;8.61;100.00;98980.75;2595824;28;20049;-88
2022/06/14 01:53:05;;;;;;;3.50;2.35;;;;;;;8.32;100.00;98980.13;2595894;28;20053;-83
2022/06/14 01:54:48;;;;;;;5.85;2.33;;;;;;;8.23;100.00;98979.38;2596435;28;20045;-83
2022/06/14 01:56:22;;;;;;;6.82;2.72;;;;;;;8.24;100.00;98979.38;2595701;28;20061;-85
2022/06/14 01:57:56;;;;;;;4.40;2.53;;;;;;;8.28;100.00;98977.56;2596079;28;20041;-84
2022/06/14 01:59:47;;;;;;;3.33;2.35;;;;;;;8.30;100.00;98975.81;2595993;28;20064;-83
2022/06/14 02:01:21;;;;;;;4.47;2.50;;;;;;;8.34;100.00;98985.34;2595974;28;20072;-84
2022/06/14 02:02:44;;;;;;;3.15;2.30;;;;;;;8.34;100.00;98974.91;2595783;28;20592;-85
2022/06/14 02:05:46;;;;;;;4.68;2.50;;;;;;;8.33;100.00;98987.06;2595899;28;20057;-83
2022/06/14 02:07:14;;;;;;;3.25;2.17;;;;;;;8.32;100.00;98985.34;2595933;28;20220;-83
2022/06/14 02:08:35;;;;;;;4.45;2.35;;;;;;;8.17;100.00;98982.91;2595929;28;20061;-83
2022/06/14 02:10:12;;;;;;;3.67;2.28;;;;;;;7.97;100.00;98990.91;2595895;28;20128;-83
2022/06/14 02:11:32;;;;;;;3.67;2.13;;;;;;;7.89;100.00;98985.75;2595934;28;20049;-82
2022/06/14 02:13:01;;;;;;;3.28;2.30;;;;;;;7.83;100.00;98983.22;2596119;28;20050;-84
2022/06/14 02:14:32;;;;;;;8.82;2.33;;;;;;;7.81;100.00;98982.31;2595674;28;20118;-83
2022/06/14 02:15:58;;;;;;;2.78;2.03;;;;;;;7.82;100.00;98981.44;2595913;28;20046;-83
2022/06/14 02:17:25;;;;;;;3.38;2.38;;;;;;;7.72;100.00;98983.25;2595767;28;20160;-83
2022/06/14 02:18:53;;;;;;;5.38;2.55;;;;;;;7.82;100.00;98984.94;2595922;28;20381;-83
2022/06/14 02:20:15;;;;;;;5.53;2.47;;;;;;;7.74;100.00;98984.13;2595773;28;20111;-82
2022/06/14 02:21:41;;;;;;;6.20;2.90;;;;;;;7.77;100.00;98987.56;2595963;28;20049;-83
2022/06/14 02:23:03;;;;;;;6.22;2.80;;;;;;;7.83;100.00;98988.41;2596078;28;21126;-85
2022/06/14 02:24:31;;;;;;;4.72;2.90;;;;;;;7.86;100.00;98986.63;2595867;28;20310;-83
2022/06/14 02:26:10;;;;;;;4.75;2.70;;;;;;;7.92;100.00;98990.94;2597263;28;20144;-84
2022/06/14 02:27:36;;;;;;;5.90;2.67;;;;;;;7.84;100.00;98987.53;2597574;28;20519;-84
2022/06/14 02:29:18;;;;;;;5.68;2.55;;;;;;;7.70;100.00;98992.84;2597460;28;20058;-83
2022/06/14 02:30:43;;;;;;;3.03;2.33;;;;;;;7.71;100.00;98982.41;2597775;28;20053;-83
2022/06/14 02:32:04;;;;;;;3.38;2.45;;;;;;;7.67;100.00;98996.31;2598119;28;20128;-83
2022/06/14 02:33:44;;;;;;;3.77;2.60;;;;;;;7.68;100.00;98985.03;2597870;28;20051;-83
2022/06/14 02:35:07;;;;;;;4.70;2.83;;;;;;;7.71;100.00;98990.25;2597815;28;20555;-83
2022/06/14 02:36:31;;;;;;;4.38;2.80;;;;;;;7.76;100.00;98995.41;2597561;28;20053;-85
2022/06/14 02:38:02;;;;;;;4.25;2.80;;;;;;;7.67;100.00;98988.50;2597879;28;20057;-83
2022/06/14 02:39:27;;;;;;;5.68;2.70;;;;;;;7.68;100.00;98989.38;2597828;28;20178;-83
2022/06/14 02:40:51;;;;;;;7.90;2.40;;;;;;;7.66;100.00;98991.16;2597901;28;20195;-83
2022/06/14 02:42:06;;;;;;;4.47;2.75;;;;;;;7.69;100.00;98997.22;2597856;28;20081;-84
2022/06/14 02:43:34;;;;;;;4.72;3.13;;;;;;;7.75;100.00;98991.06;2592291;28;20424;-84
2022/06/14 02:45:18;;;;;;;4.00;2.72;;;;;;;7.81;100.00;98988.41;2595393;28;20064;-86
2022/06/14 02:46:40;;;;;;;4.30;2.40;;;;;;;7.72;100.00;98991.97;2597874;28;20045;-85
2022/06/14 02:48:02;;;;;;;3.65;2.72;;;;;;;7.72;100.00;98996.28;2598712;28;20481;-82
2022/06/14 02:49:20;;;;;;;3.78;2.67;;;;;;;7.75;100.00;98991.06;2596096;28;20208;-84
2022/06/14 02:50:48;;;;;;;4.72;2.88;;;;;;;7.74;100.00;98990.22;2597434;28;20069;-83
2022/06/14 02:52:11;;;;;;;3.72;2.58;;;;;;;7.78;100.00;98991.91;2597863;28;20131;-83
2022/06/14 02:53:36;;;;;;;5.82;2.72;;;;;;;7.77;100.00;98998.00;2597490;28;20053;-83
2022/06/14 02:55:39;;;;;;;6.60;2.67;;;;;;;7.70;100.00;98998.94;2597638;28;20037;-83
2022/06/14 02:57:13;;;;;;;2.97;2.13;;;;;;;7.66;100.00;98994.59;2597461;28;20048;-84
2022/06/14 02:58:57;;;;;;;5.07;2.70;;;;;;;7.70;100.00;98993.72;2597666;28;20044;-83
2022/06/14 03:00:39;;;;;;;5.13;2.85;;;;;;;7.60;100.00;98998.09;2597330;28;20428;-85
2022/06/14 03:02:19;;;;;;;5.40;2.40;;;;;;;7.48;100.00;99003.44;2597378;28;20048;-83
2022/06/14 03:04:03;;;;;;;3.28;2.40;;;;;;;7.47;100.00;99002.56;2597627;28;20410;-83
2022/06/14 03:05:40;;;;;;;5.85;2.55;;;;;;;7.55;100.00;98994.69;2597421;28;20559;-85
2022/06/14 03:07:31;;;;;;;4.40;2.38;;;;;;;7.62;100.00;98996.38;2597704;28;20056;-84
2022/06/14 03:09:14;;;;;;;5.22;2.97;;;;;;;7.70;100.00;98998.94;2597150;28;20129;-84
2022/06/14 03:11:20;;;;;;;6.18;2.90;;;;;;;7.68;100.00;98997.22;2597506;28;20471;-83
2022/06/14 03:13:06;;;;;;;3.63;2.67;;;;;;;7.77;100.00;99003.22;2597390;28;20091;-83
2022/06/14 03:15:02;;;;;;;5.35;2.90;;;;;;;7.78;100.00;98999.72;2597366;28;20043;-83
2022/06/14 03:16:52;;;;;;;7.25;2.95;;;;;;;7.78;100.00;98997.13;2596987;28;20087;-83
2022/06/14 03:18:50;;;;;;;4.32;2.95;;;;;;;7.82;100.00;99007.50;2597251;28;20451;-83
2022/06/14 03:20:42;;;;;;;5.47;3.40;;;;;;;7.79;100.00;99003.22;2597570;28;20508;-83
2022/06/14 03:22:08;;;;;;;7.75;3.38;;;;;;;7.90;100.00;99003.13;2597439;28;20049;-84
2022/06/14 03:23:36;;;;;;;6.72;3.45;;;;;;;7.99;100.00;99000.44;2597357;28;20045;-84
2022/06/14 03:25:41;;;;;;;8.85;4.10;;;;;;;7.98;100.00;99003.94;2597222;28;20050;-84
2022/06/14 03:27:11;;;;;;;8.77;3.67;;;;;;;8.05;100.00;99009.97;2595791;28;20053;-84
2022/06/14 03:29:02;;;;;;;44.35;5.35;;;;;;;8.06;100.00;99006.47;2596239;28;20057;-85
2022/06/14 03:30:22;;;;;;;24.58;5.20;;;;;;;8.02;100.00;99005.63;2591284;28;20095;-84
2022/06/14 03:31:45;;;;;;;100.88;6.60;;;;;;;7.99;100.00;99004.78;2597260;28;20053;-84
2022/06/14 03:33:08;;;;;;;162.40;9.68;;;;;;;7.95;100.00;99009.16;2596722;28;20476;-83
2022/06/14 03:34:29;;;;;;;46.80;5.43;;;;;;;7.89;100.00;99004.00;2596979;28;20045;-84
2022/06/14 03:35:48;;;;;;;20.60;4.30;;;;;;;7.90;100.00;99010.94;2596852;28;20049;-82
2022/06/14 03:37:04;;;;;;;63.53;5.35;;;;;;;7.94;100.00;99007.41;2594679;28;21077;-82
2022/06/14 03:38:40;;;;;;;30.15;4.18;;;;;;;7.94;100.00;99004.81;2596433;28;20081;-87
2022/06/14 03:40:01;;;;;;;43.53;5.82;;;;;;;7.93;100.00;99010.91;2596448;28;20050;-86
2022/06/14 03:41:20;;;;;;;25.23;3.95;;;;;;;7.94;100.00;99015.25;2595810;28;20144;-83
2022/06/14 03:42:36;;;;;;;29.50;3.92;;;;;;;7.95;100.00;99014.38;2596230;28;21054;-88
2022/06/14 03:43:53;;;;;;;6.25;3.35;;;;;;;7.89;100.00;99012.69;2596445;28;20132;-83
2022/06/14 03:45:15;;;;;;;5.78;3.38;;;;;;;7.93;100.00;99020.50;2595251;28;20048;-84
2022/06/14 03:46:35;;;;;;;5.88;3.50;;;;;;;7.96;100.00;99013.50;2596477;28;20092;-85
2022/06/14 03:47:50;;;;;;;4.15;3.17;;;;;;;7.97;100.00;99017.84;2596111;28;20068;-83
2022/06/14 03:49:17;;;;;;;6.53;3.22;;;;;;;8.04;100.00;99024.72;2596300;28;20167;-84
2022/06/14 03:50:46;;;;;;;5.28;3.63;;;;;;;8.09;100.00;99018.59;2596508;28;20049;-85
2022/06/14 03:52:16;;;;;;;5.85;3.00;;;;;;;8.12;100.00;99014.22;2596385;28;20106;-84
2022/06/14 03:54:02;;;;;;;5.60;3.30;;;;;;;8.16;100.00;99013.31;2596528;28;20423;-84
2022/06/14 03:55:33;;;;;;;5.05;2.90;;;;;;;8.23;100.00;99014.13;2596932;28;20089;-84
2022/06/14 03:57:25;;;;;;;7.70;3.30;;;;;;;8.30;100.00;99015.81;2596339;28;20050;-87
2022/06/14 03:59:05;;;;;;;4.03;3.20;;;;;;;8.35;100.00;99018.38;2596391;28;20136;-85
2022/06/14 04:00:28;;;;;;;11.27;4.00;;;;;;;8.41;100.00;99023.53;2596212;28;20072;-83
2022/06/14 04:01:53;;;;;;;4.22;3.10;;;;;;;8.44;100.00;99010.44;2595197;28;20061;-83
2022/06/14 04:03:27;;;;;;;5.50;3.20;;;;;;;8.51;100.00;99018.25;2596485;28;20054;-83
2022/06/14 04:05:10;;;;;;;4.90;2.78;;;;;;;8.50;100.00;99017.38;2596394;28;20060;-84
2022/06/14 04:07:04;;;;;;;7.60;3.33;;;;;;;8.53;100.00;99024.31;2594416;28;20525;-84
2022/06/14 04:08:29;;;;;;;7.13;3.63;;;;;;;8.53;100.00;99022.59;2596281;28;20058;-84
2022/06/14 04:10:02;;;;;;;4.55;2.90;;;;;;;8.47;100.00;99027.81;2595982;28;20103;-83
2022/06/14 04:11:36;;;;;;;4.97;3.30;;;;;;;8.50;100.00;99027.81;2596561;28;20136;-85
2022/06/14 04:13:12;;;;;;;4.53;2.85;;;;;;;8.56;100.00;99030.38;2596299;28;20111;-83
2022/06/14 04:14:50;;;;;;;5.85;3.08;;;;;;;8.65;100.00;99033.75;2596415;28;20053;-84
2022/06/14 04:16:38;;;;;;;4.30;3.35;;;;;;;8.69;100.00;99028.50;2596096;28;20502;-85
2022/06/14 04:18:35;;;;;;;3.80;2.78;;;;;;;8.70;100.00;99032.84;2590717;28;20057;-82
2022/06/14 04:20:16;;;;;;;5.70;2.85;;;;;;;8.68;100.00;99032.00;2596303;28;20064;-84
2022/06/14 04:21:57;;;;;;;3.75;2.90;;;;;;;8.83;100.00;99033.59;2596505;28;20511;-85
2022/06/14 04:23:22;;;;;;;7.03;2.97;;;;;;;8.83;100.00;99036.19;2595946;28;20546;-85
2022/06/14 04:25:02;;;;;;;6.53;3.10;;;;;;;8.83;100.00;99033.59;2596598;28;20539;-84
2022/06/14 04:26:36;;;;;;;8.10;3.47;;;;;;;8.85;100.00;99023.97;2595428;28;20659;-84
2022/06/14 04:28:00;;;;;;;5.68;2.90;;;;;;;8.83;100.00;99030.97;2545628;28;1322954;-87
2022/06/14 04:29:36;;;;;;;4.47;2.90;;;;;;;8.83;100.00;99027.47;2596786;28;20084;-83
2022/06/14 04:31:03;;;;;;;7.95;3.65;;;;;;;8.83;100.00;99024.88;2596744;28;20045;-83
2022/06/14 04:32:34;;;;;;;7.00;3.30;;;;;;;8.73;100.00;99030.22;2596694;28;20056;-83
2022/06/14 04:33:58;;;;;;;7.05;3.22;;;;;;;8.81;100.00;99031.84;2596595;28;20056;-87
2022/06/14 04:35:24;;;;;;;6.57;3.33;;;;;;;8.62;100.00;99032.91;2596478;28;20423;-83
2022/06/14 04:36:43;;;;;;;5.57;3.10;;;;;;;8.62;100.00;99030.31;2594736;28;20610;-89
2022/06/14 04:38:06;;;;;;;5.15;3.20;;;;;;;8.58;100.00;99025.13;2594554;28;20048;-84
2022/06/14 04:39:40;;;;;;;6.78;3.35;;;;;;;8.69;100.00;99031.09;2594809;28;20255;-84
2022/06/14 04:41:15;;;;;;;4.85;3.33;;;;;;;8.64;100.00;99032.91;2595377;28;20069;-85
2022/06/14 04:42:37;;;;;;;4.35;3.30;;;;;;;8.66;100.00;99030.25;2595923;28;20037;-84
2022/06/14 04:44:08;;;;;;;5.68;3.25;;;;;;;8.75;100.00;99027.56;2595866;28;20052;-85
2022/06/14 04:45:32;;;;;;;6.47;3.17;;;;;;;9.00;100.00;99024.69;2596453;28;20095;-86
2022/06/14 04:46:58;;;;;;;5.90;2.97;;;;;;;9.09;100.00;99031.53;2596510;28;20050;-89
2022/06/14 04:48:17;;;;;;;5.28;3.17;;;;;;;8.99;100.00;99026.41;2595432;28;20493;-85
2022/06/14 04:49:47;;;;;;;4.63;2.95;;;;;;;9.04;100.00;99027.25;2596526;28;20491;-84
2022/06/14 04:51:10;;;;;;;6.10;2.95;;;;;;;9.04;100.00;99023.75;2595513;28;20064;-85
2022/06/14 04:52:37;;;;;;;4.90;3.00;;;;;;;9.11;100.00;99028.03;2595884;28;20053;-84
2022/06/14 04:54:02;;;;;;;4.55;3.10;;;;;;;9.05;100.00;99025.47;2595739;28;20088;-84
2022/06/14 04:55:23;;;;;;;9.48;3.13;;;;;;;8.96;100.00;99030.81;2594586;28;20053;-84
2022/06/14 04:56:50;;;;;;;4.18;3.00;;;;;;;9.13;100.00;99034.09;2594919;28;20152;-84
2022/06/14 04:58:36;;;;;;;6.30;2.88;;;;;;;9.23;100.00;99031.38;2595220;28;20417;-85
2022/06/14 05:00:15;;;;;;;4.65;2.85;;;;;;;9.09;100.00;99032.41;2594997;28;20048;-84
2022/06/14 05:01:45;;;;;;;6.00;3.40;;;;;;;9.14;100.00;99034.94;2591017;28;20083;-82
2022/06/14 05:03:10;;;;;;;3.88;3.17;;;;;;;9.31;100.00;99027.75;2593888;28;20045;-83
2022/06/14 05:04:32;;;;;;;5.40;3.03;;;;;;;9.43;100.00;99031.94;2595175;28;20052;-82
2022/06/14 05:06:00;;;;;;;5.70;3.38;;;;;;;9.51;100.00;99033.63;2595608;28;20513;-81
2022/06/14 05:07:27;;;;;;;4.18;3.05;;;;;;;9.38;100.00;99032.91;2594912;28;20127;-82
2022/06/14 05:08:52;;;;;;;6.13;3.67;;;;;;;9.39;100.00;99032.88;2593367;28;20037;-82
2022/06/14 05:10:24;;;;;;;3.75;3.05;;;;;;;9.40;100.00;99026.78;2594243;28;20045;-82
2022/06/14 05:11:46;;;;;;;5.63;3.53;;;;;;;9.45;100.00;99032.78;2595605;28;20213;-86
2022/06/14 05:13:29;;;;;;;5.40;3.60;;;;;;;9.52;100.00;99036.19;2595622;28;20041;-82
2022/06/14 05:14:52;;;;;;;6.05;3.42;;;;;;;9.62;100.00;99031.69;2596150;28;20053;-82
2022/06/14 05:16:13;;;;;;;4.63;3.40;;;;;;;9.70;100.00;99034.19;2596421;28;20476;-84
2022/06/14 05:17:43;;;;;;;4.13;3.20;;;;;;;9.86;100.00;99029.59;2594670;28;20068;-85
2022/06/14 05:19:13;;;;;;;4.82;2.97;;;;;;;9.91;100.00;99027.75;2595006;28;20553;-84
2022/06/14 05:20:38;;;;;;;4.63;3.17;;;;;;;9.80;100.00;99030.53;2595726;28;20045;-84
2022/06/14 05:22:01;;;;;;;4.07;2.85;;;;;;;9.88;100.00;99030.44;2596216;28;20507;-83
2022/06/14 05:23:30;;;;;;;5.90;3.67;;;;;;;9.98;100.00;99042.47;2596165;28;20053;-84
2022/06/14 05:24:46;;;;;;;5.78;3.20;;;;;;;10.05;100.00;99038.00;2596129;28;20049;-84
2022/06/14 05:26:06;;;;;;;7.28;3.30;;;;;;;10.11;100.00;99040.50;2595999;28;20531;-91
2022/06/14 05:27:34;;;;;;;4.68;3.03;;;;;;;10.20;100.00;99036.91;2596127;28;20077;-84
2022/06/14 05:29:15;;;;;;;5.80;3.20;;;;;;;10.17;100.00;99034.31;2595485;28;20065;-84
2022/06/14 05:30:55;;;;;;;4.03;3.00;;;;;;;10.18;100.00;99039.53;2595798;28;20053;-84
2022/06/14 05:32:22;;;;;;;5.43;2.88;;;;;;;10.30;100.00;99030.59;2596197;28;20053;-85
2022/06/14 05:33:50;;;;;;;5.18;3.35;;;;;;;10.31;100.00;99037.56;2595931;28;20053;-83
2022/06/14 05:35:32;;;;;;;7.30;3.15;;;;;;;10.24;100.00;99030.72;2596232;28;20049;-83
2022/06/14 05:36:57;;;;;;;5.40;3.00;;;;;;;10.28;100.00;99027.16;2596160;28;20049;-82
2022/06/14 05:38:57;;;;;;;6.07;3.33;;;;;;;10.35;100.00;99029.69;2596103;28;20037;-82
2022/06/14 05:40:36;;;;;;;3.90;3.03;;;;;;;10.39;100.00;99026.97;2594340;28;20550;-83
2022/06/14 05:42:07;;;;;;;7.05;3.42;;;;;;;10.46;100.00;99025.13;2594660;28;20080;-82
2022/06/14 05:43:31;;;;;;;5.53;3.22;;;;;;;10.49;100.00;99025.09;2596252;28;20522;-83
2022/06/14 05:44:53;;;;;;;6.70;3.00;;;;;;;10.55;100.00;99024.13;2595996;28;20049;-82
2022/06/14 05:46:12;;;;;;;;;;;;;;;10.61;100.00;99026.63;2596896;28;20057;-81
2022/06/14 05:47:45;;;;;;;5.95;3.33;;;;;;;10.58;100.00;99029.28;2595910;28;19978;-83
2022/06/14 05:49:10;;;;;;;5.72;2.97;;;;;;;10.64;100.00;99028.31;2596146;28;20455;-81
2022/06/14 05:50:31;;;;;;;5.47;2.95;;;;;;;10.58;100.00;99027.53;2596273;28;20058;-82
2022/06/14 05:51:53;;;;;;;3.88;3.33;;;;;;;10.54;100.00;99024.97;2595841;28;20386;-82
2022/06/14 05:53:44;;;;;;;6.10;3.00;;;;;;;10.69;100.00;99024.72;2595985;28;20550;-82
2022/06/14 05:55:10;;;;;;;7.07;3.33;;;;;;;10.79;100.00;99027.16;2594813;28;20475;-80
2022/06/14 05:56:45;;;;;;;3.38;2.88;;;;;;;10.93;100.00;99024.28;2596125;28;20233;-81
2022/06/14 05:58:26;;;;;;;4.28;2.97;;;;;;;11.01;100.00;99027.59;2596123;28;20492;-80
2022/06/14 05:59:50;;;;;;;6.75;3.13;;;;;;;11.02;100.00;99024.06;2596086;28;20053;-81
2022/06/14 06:01:16;;;;;;;4.90;2.88;;;;;;;11.07;100.00;99035.34;2595851;28;20053;-83
2022/06/14 06:02:54;;;;;;;4.82;2.78;;;;;;;11.16;99.96;99026.41;2596100;28;20440;-86
2022/06/14 06:04:28;;;;;;;4.85;3.30;;;;;;;11.23;100.00;99028.00;2595737;28;20057;-82
2022/06/14 06:05:50;;;;;;;5.00;3.13;;;;;;;11.35;100.00;99034.75;2595929;28;20064;-81
2022/06/14 06:07:11;;;;;;;7.35;2.67;;;;;;;11.33;99.00;99033.06;2596172;28;20045;-83
2022/06/14 06:08:36;;;;;;;5.68;2.90;;;;;;;11.40;99.25;99025.00;2595745;28;20099;-80
2022/06/14 06:09:59;;;;;;;8.55;2.95;;;;;;;11.49;99.88;99028.34;2595817;28;20108;-80
2022/06/14 06:11:22;;;;;;;3.50;2.88;;;;;;;11.66;100.00;99030.56;2595726;28;20048;-83
2022/06/14 06:12:44;;;;;;;5.07;2.78;;;;;;;11.75;100.00;99019.88;2595863;28;20514;-80
2022/06/14 06:14:09;;;;;;;4.00;2.42;;;;;;;11.84;97.77;99026.66;2595736;28;20091;-81
2022/06/14 06:15:31;;;;;;;4.63;2.58;;;;;;;12.02;97.14;99028.00;2595944;28;20118;-81
2022/06/14 06:17:02;;;;;;;6.53;2.72;;;;;;;12.25;92.99;99026.59;2595656;28;20045;-81
2022/06/14 06:18:29;;;;;;;6.88;2.72;;;;;;;12.23;93.53;99034.50;2595706;28;20053;-81
2022/06/14 06:20:18;;;;;;;3.55;2.60;;;;;;;12.40;93.88;99034.06;2595855;28;20504;-83
2022/06/14 06:21:49;;;;;;;6.70;2.47;;;;;;;12.55;92.33;99034.56;2595189;28;20049;-81
2022/06/14 06:23:11;;;;;;;4.00;2.08;;;;;;;12.64;87.52;99042.22;2595957;28;20064;-81
2022/06/14 06:24:32;;;;;;;;;;;;;;;12.67;86.34;99036.88;2596344;28;20067;-81
2022/06/14 06:25:56;;;;;;;3.80;2.08;;;;;;;12.82;86.37;99042.59;2595991;28;19928;-84
2022/06/14 06:27:12;;;;;;;2.97;1.88;;;;;;;12.96;86.91;99047.47;2595659;28;20084;-80
2022/06/14 06:28:31;;;;;;;3.30;2.20;;;;;;;12.97;87.57;99039.53;2595752;28;20050;-84
2022/06/14 06:30:00;;;;;;;6.07;2.65;;;;;;;13.03;85.27;99041.16;2595697;28;20049;-81
2022/06/14 06:31:23;;;;;;;4.72;2.03;;;;;;;13.29;85.94;99050.06;2596360;28;20488;-81
2022/06/14 06:32:39;;;;;;;;;;;;;;;13.33;85.68;99040.28;2596547;28;20562;-80
2022/06/14 06:33:57;;;;;;;3.50;2.33;;;;;;;13.37;84.73;99042.78;2595931;28;19968;-80
2022/06/14 06:35:13;;;;;;;2.60;1.95;;;;;;;13.44;83.47;99047.91;2595817;28;20312;-81
2022/06/14 06:36:38;;;;;;;2.90;1.90;;;;;;;13.50;81.14;99039.81;2595731;28;20049;-81
2022/06/14 06:38:07;;;;;;;2.08;1.50;;;;;;;13.60;78.46;99041.25;2596098;28;20135;-81
2022/06/14 06:39:50;;;;;;;3.78;1.90;;;;;;;13.80;79.83;99035.38;2595707;28;20522;-80
2022/06/14 06:43:02;;;;;;;2.92;1.58;;;;;;;14.19;79.43;99038.53;2595368;28;20163;-83
2022/06/14 06:45:11;;;;;;;1.73;1.58;;;;;;;14.23;76.32;99035.72;2595461;28;20548;-80
2022/06/14 06:46:35;;;;;;;3.53;1.60;;;;;;;14.34;77.55;99030.13;2593957;28;20481;-82
2022/06/14 06:48:18;;;;;;;3.40;1.60;;;;;;;14.40;77.24;99029.91;2594128;28;20704;-81
2022/06/14 06:49:52;;;;;;;4.22;1.73;;;;;;;14.46;76.35;99025.31;2595574;28;20057;-81
2022/06/14 06:51:14;;;;;;;3.70;1.50;;;;;;;14.48;75.27;99026.16;2595757;28;20045;-81
2022/06/14 06:52:42;;;;;;;5.28;1.58;;;;;;;14.61;75.71;99024.81;2596067;28;20045;-80
2022/06/14 06:54:05;;;;;;;2.90;1.40;;;;;;;14.79;75.83;99025.94;2595718;28;20053;-84
2022/06/14 06:55:46;;;;;;;1.55;1.25;;;;;;;14.76;74.24;99031.34;2595614;28;20080;-82
2022/06/14 06:57:04;;;;;;;3.47;1.30;;;;;;;14.90;74.25;99027.34;2595824;28;20107;-84
2022/06/14 06:58:36;;;;;;;5.47;1.52;;;;;;;14.97;74.31;99034.97;2595948;28;20061;-81
2022/06/14 06:59:54;;;;;;;3.00;1.33;;;;;;;14.87;72.58;99032.72;2595925;28;20528;-81
2022/06/14 07:01:22;;;;;;;3.17;1.35;;;;;;;14.85;73.70;99026.66;2595786;28;20083;-81
2022/06/14 07:02:49;;;;;;;5.07;1.45;;;;;;;14.99;73.66;99027.00;2595408;28;20060;-81
2022/06/14 07:04:10;;;;;;;3.80;1.30;;;;;;;15.19;72.94;99023.63;2594422;28;20041;-80
2022/06/14 07:05:25;;;;;;;4.72;1.70;;;;;;;15.03;73.25;99022.50;2595551;28;20049;-81